Time;durP1;ratioP1;P1;durP2;ratioP2;P2;SDS_P1;SDS_P2;PMS_P1;PMS_P2;Temp;Humidity;BMP_temperature;BMP_pressure;BME280_temperature;BME280_humidity;BME280_pressure;Samples;Min_cycle;Max_cycle;Signal;HPM_P1;HPM_P2
2022/01/26 00:06:17;;;;;;;1999.90;999.90;;;;;;;-1.48;63.72;102644.91;4923678;28;99480;-76
2022/01/26 00:08:45;;;;;;;1999.90;999.90;;;;;;;-1.46;63.52;102640.75;4918031;28;100732;-76
2022/01/26 00:11:12;;;;;;;1999.90;999.90;;;;;;;-1.50;63.55;102633.38;4922079;28;98138;-74
2022/01/26 00:13:41;;;;;;;1999.90;999.90;;;;;;;-1.49;63.29;102633.56;4920461;28;98277;-76
2022/01/26 00:16:19;;;;;;;1999.90;999.90;;;;;;;-1.48;63.76;102637.06;4917437;28;97510;-75
2022/01/26 00:18:47;;;;;;;1999.90;999.90;;;;;;;-1.49;63.92;102635.25;4919282;28;98303;-76
2022/01/26 00:21:25;;;;;;;1999.90;999.90;;;;;;;-1.51;63.58;102626.34;4920775;28;98590;-75
2022/01/26 00:24:09;;;;;;;1999.90;999.90;;;;;;;-1.54;63.85;102621.72;4920115;28;96968;-76
2022/01/26 00:26:59;;;;;;;1999.90;999.90;;;;;;;-1.59;63.92;102617.75;4918915;28;100721;-75
2022/01/26 00:29:30;;;;;;;1999.90;999.90;;;;;;;-1.63;63.41;102620.81;4935075;28;99226;-75
2022/01/26 00:33:06;;;;;;;1999.90;999.90;;;;;;;-1.64;63.63;102618.97;4900359;28;98057;-76
2022/01/26 00:40:26;;;;;;;1999.90;999.90;;;;;;;-1.75;63.49;102624.81;4917448;28;99483;-74
2022/01/26 00:42:58;;;;;;;1999.90;999.90;;;;;;;-1.74;63.84;102630.97;4925609;28;96974;-75
2022/01/26 00:45:34;;;;;;;1999.90;999.90;;;;;;;-1.74;64.02;102641.41;4924802;28;98151;-75
2022/01/26 00:48:05;;;;;;;1999.90;999.90;;;;;;;-1.73;64.07;102633.72;4940678;28;98921;-76
2022/01/26 00:50:33;;;;;;;1999.90;999.90;;;;;;;-1.75;63.74;102642.16;4919202;28;99280;-72
2022/01/26 00:53:01;;;;;;;1999.90;999.90;;;;;;;-1.78;63.46;102640.19;4921409;28;97374;-76
2022/01/26 00:55:29;;;;;;;1999.90;999.90;;;;;;;-1.80;63.80;102652.16;4920816;28;97241;-74
2022/01/26 00:57:57;;;;;;;1999.90;999.90;;;;;;;-1.82;63.53;102651.97;4926189;28;97872;-74
2022/01/26 01:00:28;;;;;;;1999.90;999.90;;;;;;;-1.82;63.37;102650.16;4919436;28;98122;-76
2022/01/26 01:02:56;;;;;;;1999.90;999.90;;;;;;;-1.79;63.71;102653.06;4920910;28;97140;-75
2022/01/26 01:05:28;;;;;;;1999.90;999.90;;;;;;;-1.85;63.36;102648.13;4917624;28;100701;-76
2022/01/26 01:08:02;;;;;;;1999.90;999.90;;;;;;;-1.89;63.44;102641.69;4921087;28;100908;-75
2022/01/26 01:10:30;;;;;;;1999.90;999.90;;;;;;;-1.90;63.23;102645.09;4922172;28;100841;-75
2022/01/26 01:12:59;;;;;;;1999.90;999.90;;;;;;;-1.91;63.64;102637.13;4925369;28;98581;-75
2022/01/26 01:15:30;;;;;;;1999.90;999.90;;;;;;;-1.94;63.70;102642.94;4926227;28;97030;-75
2022/01/26 01:18:07;;;;;;;1999.90;999.90;;;;;;;-1.95;63.92;102646.31;4902273;28;97858;-76
2022/01/26 01:23:42;;;;;;;1999.90;999.90;;;;;;;-1.98;63.12;102646.00;4924007;28;97994;-75
2022/01/26 01:26:46;;;;;;;1999.90;999.90;;;;;;;-1.98;63.69;102642.50;4924059;28;97172;-75
2022/01/26 01:29:20;;;;;;;1999.90;999.90;;;;;;;-2.00;63.27;102641.41;4920687;28;100191;-75
2022/01/26 01:31:52;;;;;;;1999.90;999.90;;;;;;;-1.99;63.66;102641.56;4922677;28;99702;-76
2022/01/26 01:34:21;;;;;;;1999.90;999.90;;;;;;;-2.00;63.63;102641.41;4921082;28;98969;-76
2022/01/26 01:36:51;;;;;;;1999.90;999.90;;;;;;;-2.03;63.51;102633.25;4923776;28;97925;-74
2022/01/26 01:39:19;;;;;;;1999.90;999.90;;;;;;;-2.01;63.77;102636.94;4922184;28;100296;-75
2022/01/26 01:41:49;;;;;;;1999.90;999.90;;;;;;;-2.03;63.48;102631.56;4923131;28;100461;-74
2022/01/26 01:44:17;;;;;;;1999.90;999.90;;;;;;;-2.04;63.80;102621.94;4917737;28;98179;-75
2022/01/26 01:46:45;;;;;;;1999.90;999.90;;;;;;;-2.03;63.53;102615.94;4939406;28;97682;-76
2022/01/26 01:49:15;;;;;;;1999.90;999.90;;;;;;;-2.02;63.30;102622.06;4918799;28;99100;-75
2022/01/26 01:51:49;;;;;;;1999.90;999.90;;;;;;;-2.01;63.56;102617.00;4920897;28;99657;-76
2022/01/26 01:54:18;;;;;;;1999.90;999.90;;;;;;;-2.02;63.12;102607.34;4923668;28;97667;-76
2022/01/26 01:56:51;;;;;;;1999.90;999.90;;;;;;;-2.02;63.51;102612.56;4925485;28;98825;-76
2022/01/26 01:59:19;;;;;;;1999.90;999.90;;;;;;;-2.05;63.69;102612.25;4921831;28;98562;-76
2022/01/26 02:01:47;;;;;;;1999.90;999.90;;;;;;;-2.05;62.87;102607.03;4921358;28;99133;-76
2022/01/26 02:04:16;;;;;;;1999.90;999.90;;;;;;;-2.04;63.10;102607.97;4922440;28;98574;-76
2022/01/26 02:06:44;;;;;;;1999.90;999.90;;;;;;;-2.05;63.15;102603.50;4918867;28;98924;-76
2022/01/26 02:09:12;;;;;;;1999.90;999.90;;;;;;;-2.05;63.43;102600.88;4937134;28;99380;-77
2022/01/26 02:11:47;;;;;;;1999.90;999.90;;;;;;;-2.06;63.09;102602.59;4922488;28;98071;-76
2022/01/26 02:14:19;;;;;;;1999.90;999.90;;;;;;;-2.04;63.44;102605.34;4921147;28;96968;-75
2022/01/26 02:16:52;;;;;;;1999.90;999.90;;;;;;;-2.06;63.15;102605.19;4917695;28;98518;-75
2022/01/26 02:19:58;;;;;;;1999.90;999.90;;;;;;;-2.03;62.80;102600.28;4915652;28;99363;-76
2022/01/26 02:53:29;;;;;;;1999.90;999.90;;;;;;;-1.77;63.17;102583.69;4914541;28;99035;-75
2022/01/26 02:56:03;;;;;;;1999.90;999.90;;;;;;;-1.79;62.58;102580.94;4919686;28;99329;-75
2022/01/26 02:58:48;;;;;;;1999.90;999.90;;;;;;;-1.79;63.35;102577.38;4918261;28;99011;-77
2022/01/26 03:01:36;;;;;;;1999.90;999.90;;;;;;;-1.78;63.07;102576.63;4917840;28;97411;-75
2022/01/26 03:04:11;;;;;;;1999.90;999.90;;;;;;;-1.77;62.69;102573.25;4920040;28;100036;-75
2022/01/26 03:06:45;;;;;;;1999.90;999.90;;;;;;;-1.75;62.75;102576.94;4918039;28;100624;-76
2022/01/26 03:09:21;;;;;;;1999.90;999.90;;;;;;;-1.73;62.42;102573.72;4916394;28;98322;-76
2022/01/26 03:11:50;;;;;;;1999.90;999.90;;;;;;;-1.73;62.62;102571.09;4919432;28;97925;-75
2022/01/26 03:14:20;;;;;;;1999.90;999.90;;;;;;;-1.69;62.38;102572.31;4917864;28;98696;-75
2022/01/26 03:16:54;;;;;;;1999.90;999.90;;;;;;;-1.71;62.99;102568.63;4922260;28;101759;-76
2022/01/26 03:19:30;;;;;;;1999.90;999.90;;;;;;;-1.70;62.58;102565.25;4917703;28;98858;-75
2022/01/26 03:22:19;;;;;;;1999.90;999.90;;;;;;;-1.68;62.85;102563.72;4920036;28;98125;-75
2022/01/26 03:30:37;;;;;;;1999.90;999.90;;;;;;;-1.71;62.40;102552.97;4918996;28;97874;-75
2022/01/26 03:33:13;;;;;;;1999.90;999.90;;;;;;;-1.79;62.46;102546.06;4921646;28;97333;-75
2022/01/26 03:35:46;;;;;;;1999.90;999.90;;;;;;;-1.78;62.99;102550.53;4902004;28;100921;-75
2022/01/26 03:38:21;;;;;;;1999.90;999.90;;;;;;;-1.82;62.33;102558.84;4918561;28;96971;-75
2022/01/26 03:40:57;;;;;;;1999.90;999.90;;;;;;;-1.83;63.03;102547.47;4917104;28;96942;-75
2022/01/26 03:43:26;;;;;;;1999.90;999.90;;;;;;;-1.82;62.23;102545.78;4902977;28;97156;-75
2022/01/26 03:45:54;;;;;;;1999.90;999.90;;;;;;;-1.83;62.50;102530.91;4919006;28;98924;-76
2022/01/26 03:48:22;;;;;;;1999.90;999.90;;;;;;;-1.85;62.19;102549.94;4917253;28;97883;-75
2022/01/26 03:50:49;;;;;;;1999.90;999.90;;;;;;;-1.85;62.92;102538.56;4918960;28;96946;-77
2022/01/26 03:53:17;;;;;;;1999.90;999.90;;;;;;;-1.88;62.06;102538.28;4919022;28;97705;-77
2022/01/26 03:55:45;;;;;;;1999.90;999.90;;;;;;;-1.91;62.13;102532.78;4915154;28;99937;-76
2022/01/26 03:58:13;;;;;;;1999.90;999.90;;;;;;;-1.92;62.42;102530.91;4920627;28;101448;-75
2022/01/26 04:00:42;;;;;;;1999.90;999.90;;;;;;;-1.95;62.61;102533.22;4918908;28;97956;-75
2022/01/26 04:03:13;;;;;;;1999.90;999.90;;;;;;;-1.98;62.68;102530.31;4921925;28;97248;-76
2022/01/26 04:05:43;;;;;;;1999.90;999.90;;;;;;;-2.01;62.05;102528.31;4917419;28;98875;-74
2022/01/26 04:08:16;;;;;;;1999.90;999.90;;;;;;;-2.04;62.77;102527.09;4919866;28;99628;-78
2022/01/26 04:10:55;;;;;;;1999.90;999.90;;;;;;;-2.03;62.57;102532.47;4915115;28;99784;-75
2022/01/26 04:13:23;;;;;;;1999.90;999.90;;;;;;;-2.02;62.35;102528.19;4902064;28;97240;-76
2022/01/26 04:15:52;;;;;;;1999.90;999.90;;;;;;;-1.98;62.85;102538.16;4919572;28;97288;-76
2022/01/26 04:18:25;;;;;;;1999.90;999.90;;;;;;;-1.93;62.87;102544.72;4918578;28;98915;-76
2022/01/26 04:20:56;;;;;;;1999.90;999.90;;;;;;;-1.92;62.86;102549.16;4916754;28;98883;-76
2022/01/26 04:23:31;;;;;;;1999.90;999.90;;;;;;;-1.89;62.62;102550.38;4920573;28;96046;-76
2022/01/26 04:25:59;;;;;;;1999.90;999.90;;;;;;;-1.86;62.61;102542.88;4915926;28;98433;-76
2022/01/26 04:28:35;;;;;;;1999.90;999.90;;;;;;;-1.86;62.36;102537.66;4917305;28;98844;-76
2022/01/26 04:31:04;;;;;;;1999.90;999.90;;;;;;;-1.87;62.63;102543.63;4932752;28;97887;-76
2022/01/26 04:33:33;;;;;;;1999.90;999.90;;;;;;;-1.92;62.87;102549.16;4920124;28;98832;-75
2022/01/26 04:36:03;;;;;;;1999.90;999.90;;;;;;;-1.93;62.36;102544.72;4918571;28;97965;-75
2022/01/26 04:38:36;;;;;;;1999.90;999.90;;;;;;;-1.91;62.83;102544.09;4916792;28;100518;-76
2022/01/26 04:41:20;;;;;;;1999.90;999.90;;;;;;;-1.92;62.83;102533.50;4914668;28;98256;-76
2022/01/26 04:43:52;;;;;;;1999.90;999.90;;;;;;;-1.95;62.75;102523.72;4913225;28;99183;-76
2022/01/26 04:46:21;;;;;;;1999.90;999.90;;;;;;;-1.98;62.25;102526.00;4915443;28;97158;-75
2022/01/26 04:48:49;;;;;;;1999.90;999.90;;;;;;;-1.99;62.86;102524.19;4918433;28;98735;-75
2022/01/26 04:51:17;;;;;;;1999.90;999.90;;;;;;;-2.04;62.68;102527.09;4916574;28;99270;-76
2022/01/26 04:53:44;;;;;;;1999.90;999.90;;;;;;;-2.06;63.19;102526.97;4920204;28;98811;-75
2022/01/26 04:56:13;;;;;;;1999.90;999.90;;;;;;;-2.08;63.34;102528.50;4898878;28;99875;-74
2022/01/26 04:58:42;;;;;;;1999.90;999.90;;;;;;;-2.09;62.80;102539.66;4921723;28;97678;-75
2022/01/26 05:01:10;;;;;;;1999.90;999.90;;;;;;;-2.08;62.73;102540.59;4919278;28;96904;-76
2022/01/26 05:03:39;;;;;;;1999.90;999.90;;;;;;;-2.16;63.56;102537.22;4921718;28;96985;-76
2022/01/26 05:06:07;;;;;;;1999.90;999.90;;;;;;;-2.14;63.16;102537.38;4915734;28;99223;-76
2022/01/26 05:08:36;;;;;;;1999.90;999.90;;;;;;;-2.49;63.66;102546.84;4918547;28;98450;-75
2022/01/26 05:11:05;;;;;;;1999.90;999.90;;;;;;;-2.61;64.64;102540.41;4920579;28;96881;-76
2022/01/26 05:13:54;;;;;;;1999.90;999.90;;;;;;;-2.64;64.75;102552.19;4919881;28;98026;-75
2022/01/26 05:16:22;;;;;;;1999.90;999.90;;;;;;;-2.61;65.04;102542.06;4921277;28;99161;-74
2022/01/26 05:18:53;;;;;;;1999.90;999.90;;;;;;;-2.63;64.53;102536.72;4926736;28;98174;-74
2022/01/26 05:21:20;;;;;;;1999.90;999.90;;;;;;;-2.62;65.16;102541.19;4925367;28;96982;-75
2022/01/26 05:23:48;;;;;;;1999.90;999.90;;;;;;;-2.61;65.05;102542.06;4930993;28;96803;-73
2022/01/26 05:26:16;;;;;;;1999.90;999.90;;;;;;;-2.61;65.20;102539.47;4930487;28;99489;-75
2022/01/26 05:28:44;;;;;;;1999.90;999.90;;;;;;;-2.60;64.65;102525.69;4931072;28;98444;-78
2022/01/26 05:31:12;;;;;;;1999.90;999.90;;;;;;;-2.62;65.40;102535.03;4929510;28;96992;-75
2022/01/26 05:33:40;;;;;;;1999.90;999.90;;;;;;;-2.61;64.91;102529.03;4930078;28;97855;-76
2022/01/26 05:36:10;;;;;;;1999.90;999.90;;;;;;;-2.63;64.64;102526.28;4943056;28;100872;-76
2022/01/26 05:38:38;;;;;;;1999.90;999.90;;;;;;;-2.62;64.74;102519.41;4925953;28;99405;-75
2022/01/26 05:41:06;;;;;;;1999.90;999.90;;;;;;;-2.65;64.76;102521.69;4925016;28;97184;-75
2022/01/26 05:43:34;;;;;;;1999.90;999.90;;;;;;;-2.64;64.72;102519.25;4922711;28;98738;-77
2022/01/26 05:46:06;;;;;;;1999.90;999.90;;;;;;;-2.63;64.45;102510.66;4926785;28;97960;-76
2022/01/26 05:48:35;;;;;;;1999.90;999.90;;;;;;;-2.64;64.98;102514.03;4923102;28;97451;-77
2022/01/26 05:51:07;;;;;;;1999.90;999.90;;;;;;;-2.65;64.97;102509.56;4921449;28;97535;-77
2022/01/26 05:53:39;;;;;;;1999.90;999.90;;;;;;;-2.65;65.28;102517.41;4924247;28;97468;-76
2022/01/26 05:56:07;;;;;;;1999.90;999.90;;;;;;;-2.68;65.22;102500.53;4922209;28;100169;-75
2022/01/26 05:58:35;;;;;;;1999.90;999.90;;;;;;;-2.68;65.02;102504.06;4921317;28;98072;-75
2022/01/26 06:01:03;;;;;;;1999.90;999.90;;;;;;;-2.69;65.08;102504.81;4922187;28;97004;-76
2022/01/26 06:03:31;;;;;;;1999.90;999.90;;;;;;;-2.69;64.65;102499.59;4922888;28;99288;-76
2022/01/26 06:06:00;;;;;;;1999.90;999.90;;;;;;;-2.72;64.85;102494.09;4921051;28;97653;-76
2022/01/26 06:08:28;;;;;;;1999.90;999.90;;;;;;;-2.73;65.73;102496.56;4924002;28;99755;-76
2022/01/26 06:10:59;;;;;;;1999.90;999.90;;;;;;;-2.73;64.88;102507.91;4920956;28;98514;-76
2022/01/26 06:13:26;;;;;;;1999.90;999.90;;;;;;;-2.77;65.77;102490.13;4905427;28;98555;-75
2022/01/26 06:15:54;;;;;;;1999.90;999.90;;;;;;;-2.77;65.04;102502.22;4926916;28;97709;-76
2022/01/26 06:18:22;;;;;;;1999.90;999.90;;;;;;;-2.77;64.95;102500.53;4929855;28;99724;-76
2022/01/26 06:20:49;;;;;;;1999.90;999.90;;;;;;;-2.78;65.02;102500.38;4924304;28;97952;-75
2022/01/26 06:23:19;;;;;;;1999.90;999.90;;;;;;;-2.78;64.97;102490.84;4923814;28;99228;-75
2022/01/26 06:25:49;;;;;;;1999.90;999.90;;;;;;;-2.79;65.12;102490.72;4925989;28;98284;-75
2022/01/26 06:28:18;;;;;;;1999.90;999.90;;;;;;;-2.80;65.24;102500.19;4926125;28;97664;-77
2022/01/26 06:30:47;;;;;;;1999.90;999.90;;;;;;;-2.79;65.11;102509.88;4925279;28;96828;-76
2022/01/26 06:33:15;;;;;;;1999.90;999.90;;;;;;;-2.82;65.89;102516.47;4924256;28;98454;-76
2022/01/26 06:35:43;;;;;;;1999.90;999.90;;;;;;;-2.80;65.30;102521.03;4924079;28;97730;-75
2022/01/26 06:38:10;;;;;;;1999.90;999.90;;;;;;;-2.78;64.92;102509.09;4929076;28;99269;-76
2022/01/26 06:40:38;;;;;;;1999.90;999.90;;;;;;;-2.76;65.38;102510.16;4929896;28;97555;-76
2022/01/26 06:43:10;;;;;;;1999.90;999.90;;;;;;;-2.73;65.21;102505.28;4926870;28;97967;-74
2022/01/26 06:45:46;;;;;;;1999.90;999.90;;;;;;;-2.73;64.81;102515.72;4920294;28;98737;-76
2022/01/26 06:51:07;;;;;;;1999.90;999.90;;;;;;;-2.73;65.22;102514.78;4895349;28;98164;-74
2022/01/26 06:53:35;;;;;;;1999.90;999.90;;;;;;;-2.75;65.54;102508.50;4915539;28;98708;-75
2022/01/26 06:56:03;;;;;;;1999.90;999.90;;;;;;;-2.75;65.10;102513.72;4914328;28;99216;-73
2022/01/26 06:58:31;;;;;;;1999.90;999.90;;;;;;;-2.78;65.14;102503.00;4932489;28;100348;-75
2022/01/26 07:01:00;;;;;;;1999.90;999.90;;;;;;;-2.79;65.23;102499.44;4915214;28;98665;-76
2022/01/26 07:03:28;;;;;;;1999.90;999.90;;;;;;;-2.79;65.89;102507.28;4919317;28;98241;-76
2022/01/26 07:05:56;;;;;;;1999.90;999.90;;;;;;;-2.78;65.27;102509.09;4916365;28;99322;-75
2022/01/26 07:08:23;;;;;;;1999.90;999.90;;;;;;;-2.79;65.78;102506.34;4916145;28;101432;-74
2022/01/26 07:10:53;;;;;;;1999.90;999.90;;;;;;;-2.78;65.37;102503.88;4919143;28;100510;-75
2022/01/26 07:13:23;;;;;;;1999.90;999.90;;;;;;;-2.79;65.60;102495.91;4920128;28;98390;-75
2022/01/26 07:21:27;;;;;;;1999.90;999.90;;;;;;;-2.83;65.43;102505.09;4919701;28;96941;-75
2022/01/26 07:23:55;;;;;;;1999.90;999.90;;;;;;;-2.85;65.99;102506.63;4901266;28;99007;-75
2022/01/26 07:26:27;;;;;;;1999.90;999.90;;;;;;;-2.88;65.48;102516.75;4917221;28;97643;-75
2022/01/26 07:28:55;;;;;;;1999.90;999.90;;;;;;;-2.87;65.57;102501.28;4917345;28;100388;-75
2022/01/26 07:31:23;;;;;;;1999.90;999.90;;;;;;;-2.86;65.47;102520.44;4915089;28;97192;-74
2022/01/26 07:33:54;;;;;;;1999.90;999.90;;;;;;;-2.88;65.64;102511.53;4919320;28;99008;-75
2022/01/26 07:36:23;;;;;;;1999.90;999.90;;;;;;;-2.89;65.75;102502.81;4918228;28;96993;-73
2022/01/26 07:38:52;;;;;;;1999.90;999.90;;;;;;;-2.92;66.43;102514.59;4918329;28;99526;-75
2022/01/26 07:41:20;;;;;;;1999.90;999.90;;;;;;;-2.91;65.73;102516.44;4916149;28;97869;-75
2022/01/26 07:43:48;;;;;;;1999.90;999.90;;;;;;;-2.89;65.92;102504.47;4935844;28;100239;-75
2022/01/26 07:46:17;;;;;;;1999.90;999.90;;;;;;;-2.88;65.88;102512.47;4919183;28;98306;-76
2022/01/26 07:48:45;;;;;;;1999.90;999.90;;;;;;;-2.86;65.60;102499.59;4920085;28;99676;-76
2022/01/26 07:51:14;;;;;;;1999.90;999.90;;;;;;;-2.85;65.37;102501.44;4921328;28;97860;-74
2022/01/26 07:53:41;;;;;;;1999.90;999.90;;;;;;;-2.87;65.91;102500.34;4922234;28;98174;-75
2022/01/26 07:56:09;;;;;;;1999.90;999.90;;;;;;;-2.88;65.89;102515.06;4918266;28;100530;-75
2022/01/26 07:58:37;;;;;;;1999.90;999.90;;;;;;;-2.86;65.53;102512.63;4916973;28;99168;-73
2022/01/26 08:01:04;;;;;;;1999.90;999.90;;;;;;;-2.84;65.93;102524.13;4918417;28;98789;-72
2022/01/26 08:03:34;;;;;;;1999.90;999.90;;;;;;;-2.79;66.02;102507.28;4918418;28;98572;-73
2022/01/26 08:06:02;;;;;;;1999.90;999.90;;;;;;;-2.75;66.02;102508.50;4903991;28;100758;-73
2022/01/26 08:08:31;;;;;;;1999.90;999.90;;;;;;;-2.73;66.06;102507.91;4920211;28;97656;-73
2022/01/26 08:11:00;;;;;;;1999.90;999.90;;;;;;;-2.72;65.88;102507.13;4906861;28;97376;-73
2022/01/26 08:13:28;;;;;;;1999.90;999.90;;;;;;;-2.73;66.04;102486.13;4919517;28;99491;-73
2022/01/26 08:15:57;;;;;;;1999.90;999.90;;;;;;;-2.72;66.26;102472.31;4920602;28;99121;-74
2022/01/26 08:18:25;;;;;;;1999.90;999.90;;;;;;;-2.78;65.50;102467.41;4919700;28;97613;-74
2022/01/26 08:20:53;;;;;;;1999.90;999.90;;;;;;;-2.77;65.64;102476.16;4916915;28;96814;-74
2022/01/26 08:23:22;;;;;;;1999.90;999.90;;;;;;;-2.82;66.20;102480.91;4914777;28;96994;-75
2022/01/26 08:25:51;;;;;;;1999.90;999.90;;;;;;;-2.86;65.93;102463.13;4916580;28;97800;-74
2022/01/26 08:28:25;;;;;;;1999.90;999.90;;;;;;;-2.85;65.87;102459.75;4918317;28;101561;-72
2022/01/26 08:30:53;;;;;;;1999.90;999.90;;;;;;;-2.87;65.84;102472.63;4918726;28;98459;-74
2022/01/26 08:33:21;;;;;;;1999.90;999.90;;;;;;;-2.88;65.38;102475.06;4919866;28;98098;-74
2022/01/26 08:35:49;;;;;;;1999.90;999.90;;;;;;;-2.91;66.39;102456.56;4921029;28;98840;-72
2022/01/26 08:38:17;;;;;;;1999.90;999.90;;;;;;;-2.89;65.96;102468.00;4921451;28;98977;-75
2022/01/26 08:40:46;;;;;;;1999.90;999.90;;;;;;;-2.89;66.15;102468.00;4918501;28;96882;-73
2022/01/26 08:43:16;;;;;;;1999.90;999.90;;;;;;;-2.88;66.16;102468.19;4922277;28;96953;-74
2022/01/26 08:45:44;;;;;;;1999.90;999.90;;;;;;;-2.87;65.46;102477.84;4921987;28;97837;-73
2022/01/26 08:48:12;;;;;;;1999.90;999.90;;;;;;;-2.86;66.03;102489.19;4922367;28;99119;-74
2022/01/26 08:50:40;;;;;;;1999.90;999.90;;;;;;;-2.81;65.80;102498.38;4920299;28;98095;-74
2022/01/26 08:53:08;;;;;;;1999.90;999.90;;;;;;;-2.82;66.07;102492.25;4922050;28;97587;-75
2022/01/26 08:55:36;;;;;;;1999.90;999.90;;;;;;;-2.81;65.95;102490.56;4921558;28;97718;-75
2022/01/26 08:58:04;;;;;;;1999.90;999.90;;;;;;;-2.79;66.16;102490.72;4924544;28;101563;-74
2022/01/26 09:00:35;;;;;;;1999.90;999.90;;;;;;;-2.77;66.20;102487.50;4919110;28;97758;-75
2022/01/26 09:03:14;;;;;;;1999.90;999.90;;;;;;;-2.75;65.65;102498.06;4909312;28;97427;-74
2022/01/26 09:05:42;;;;;;;1999.90;999.90;;;;;;;-2.75;66.01;102496.41;4933392;28;97948;-75
2022/01/26 09:08:10;;;;;;;1999.90;999.90;;;;;;;-2.72;65.76;102495.78;4924812;28;98701;-74
2022/01/26 09:10:39;;;;;;;1999.90;999.90;;;;;;;-2.72;65.35;102499.31;4920134;28;98752;-75
2022/01/26 09:13:07;;;;;;;1999.90;999.90;;;;;;;-2.70;65.32;102492.56;4920146;28;97479;-75
2022/01/26 09:15:39;;;;;;;1999.90;999.90;;;;;;;-2.70;65.63;102499.44;4920084;28;99834;-75
2022/01/26 09:18:08;;;;;;;1999.90;999.90;;;;;;;-2.71;65.07;102500.22;4924807;28;98242;-73
2022/01/26 09:20:38;;;;;;;1999.90;999.90;;;;;;;-2.74;65.37;102498.22;4922554;28;98523;-75
2022/01/26 09:23:06;;;;;;;1999.90;999.90;;;;;;;-2.79;65.58;102509.88;4923996;28;97856;-71
2022/01/26 09:25:35;;;;;;;1999.90;999.90;;;;;;;-2.84;65.45;102514.59;4915419;28;98239;-74
2022/01/26 09:28:02;;;;;;;1999.90;999.90;;;;;;;-2.84;65.32;102503.28;4923188;28;97541;-73
2022/01/26 09:30:31;;;;;;;1999.90;999.90;;;;;;;-2.82;65.88;102512.19;4922587;28;97514;-74
2022/01/26 09:32:59;;;;;;;1999.90;999.90;;;;;;;-2.79;65.38;102512.47;4925821;28;98685;-74
2022/01/26 09:35:27;;;;;;;1999.90;999.90;;;;;;;-2.79;65.40;102516.75;4917507;28;101251;-75
2022/01/26 09:37:55;;;;;;;1999.90;999.90;;;;;;;-2.80;65.01;102521.03;4922770;28;101010;-75
2022/01/26 09:40:23;;;;;;;1999.90;999.90;;;;;;;-2.80;65.55;102514.94;4921066;28;97821;-73
2022/01/26 09:42:51;;;;;;;1999.90;999.90;;;;;;;-2.82;64.93;102509.56;4922224;28;97796;-74
2022/01/26 09:45:19;;;;;;;1999.90;999.90;;;;;;;-2.86;65.53;102515.22;4923845;28;98621;-74
2022/01/26 09:47:47;;;;;;;1999.90;999.90;;;;;;;-2.92;65.17;102518.13;4938493;28;101570;-76
2022/01/26 09:50:33;;;;;;;1999.90;999.90;;;;;;;-2.95;65.55;102512.59;4911080;28;97456;-73
2022/01/26 09:53:01;;;;;;;1999.90;999.90;;;;;;;-2.96;65.23;102517.63;4908302;28;97688;-74
2022/01/26 09:55:30;;;;;;;1999.90;999.90;;;;;;;-2.98;65.44;102514.88;4927447;28;99305;-76
2022/01/26 09:57:58;;;;;;;1999.90;999.90;;;;;;;-2.94;65.26;102521.31;4928984;28;98271;-75
2022/01/26 10:00:26;;;;;;;1999.90;999.90;;;;;;;-2.94;65.36;102526.53;4923785;28;97328;-76
2022/01/26 10:02:58;;;;;;;1999.90;999.90;;;;;;;-2.97;64.99;102548.00;4926908;28;97014;-74
2022/01/26 10:05:27;;;;;;;1999.90;999.90;;;;;;;-2.98;65.21;102540.94;4917418;28;100781;-72
2022/01/26 10:08:08;;;;;;;1999.90;999.90;;;;;;;-2.95;64.79;102535.13;4924221;28;98909;-75
2022/01/26 10:16:41;;;;;;;1999.90;999.90;;;;;;;-3.07;65.19;102545.19;4922402;28;100064;-74
2022/01/26 10:19:10;;;;;;;1999.90;999.90;;;;;;;-3.11;65.45;102562.97;4925541;28;98291;-75
2022/01/26 10:21:46;;;;;;;1999.90;999.90;;;;;;;-3.14;64.66;102566.16;4936284;28;97797;-74
2022/01/26 10:24:16;;;;;;;1999.90;999.90;;;;;;;-3.16;64.99;102552.06;4921504;28;99308;-74
2022/01/26 10:26:48;;;;;;;1999.90;999.90;;;;;;;-3.10;65.32;102570.91;4923555;28;99676;-74
2022/01/26 10:29:17;;;;;;;1999.90;999.90;;;;;;;-3.10;64.61;102559.56;4921345;28;98472;-74
2022/01/26 10:31:45;;;;;;;1999.90;999.90;;;;;;;-3.09;65.42;102566.59;4920234;28;98053;-72
2022/01/26 10:34:15;;;;;;;1999.90;999.90;;;;;;;-3.09;65.28;102571.81;4923088;28;97411;-75
2022/01/26 10:36:44;;;;;;;1999.90;999.90;;;;;;;-3.09;65.38;102572.75;4926401;28;97910;-74
2022/01/26 10:39:19;;;;;;;1999.90;999.90;;;;;;;-3.08;65.29;102578.88;4926915;28;97688;-74
2022/01/26 10:41:50;;;;;;;1999.90;999.90;;;;;;;-3.09;65.42;102569.22;4923190;28;99058;-73
2022/01/26 10:44:18;;;;;;;1999.90;999.90;;;;;;;-3.08;64.52;102565.88;4921054;28;96902;-73
2022/01/26 10:46:46;;;;;;;1999.90;999.90;;;;;;;-3.07;65.26;102579.03;4920893;28;101820;-74
2022/01/26 10:49:19;;;;;;;1999.90;999.90;;;;;;;-3.07;65.27;102555.59;4923714;28;99285;-74
2022/01/26 10:51:59;;;;;;;1999.90;999.90;;;;;;;-3.13;64.58;102556.66;4912373;28;98174;-72
2022/01/26 10:54:37;;;;;;;1999.90;999.90;;;;;;;-3.14;64.99;102557.41;4910963;28;99046;-75
2022/01/26 10:57:06;;;;;;;1999.90;999.90;;;;;;;-3.15;64.99;102566.91;4910978;28;97757;-73
2022/01/26 10:59:35;;;;;;;1999.90;999.90;;;;;;;-3.14;64.96;102562.63;4906756;28;99686;-73
2022/01/26 11:02:05;;;;;;;1999.90;999.90;;;;;;;-3.15;65.24;102566.00;4909057;28;97084;-71
2022/01/26 11:04:34;;;;;;;1999.90;999.90;;;;;;;-3.17;65.11;102565.84;4914274;28;97429;-73
2022/01/26 11:07:04;;;;;;;1999.90;999.90;;;;;;;-3.17;65.05;102562.31;4916516;28;99279;-74
2022/01/26 11:09:37;;;;;;;1999.90;999.90;;;;;;;-3.16;64.88;102558.94;4913121;28;99493;-73
2022/01/26 11:12:07;;;;;;;1999.90;999.90;;;;;;;-3.19;64.82;102548.22;4914785;28;97231;-74
2022/01/26 11:14:40;;;;;;;1999.90;999.90;;;;;;;-3.19;64.87;102549.13;4917593;28;97966;-75
2022/01/26 11:17:09;;;;;;;1999.90;999.90;;;;;;;-3.21;65.31;102540.25;4913833;28;98984;-75
2022/01/26 11:19:41;;;;;;;1999.90;999.90;;;;;;;-3.21;64.98;102528.91;4917663;28;98312;-75
2022/01/26 11:22:11;;;;;;;1999.90;999.90;;;;;;;-3.24;65.66;102536.41;4914627;28;97342;-76
2022/01/26 11:24:53;;;;;;;1999.90;999.90;;;;;;;-3.28;65.28;102534.25;4920096;28;98702;-76
2022/01/26 11:27:22;;;;;;;1999.90;999.90;;;;;;;-3.30;65.55;102538.38;4904257;28;98486;-76
2022/01/26 11:29:54;;;;;;;1999.90;999.90;;;;;;;-3.32;65.05;102533.00;4917294;28;97819;-74
2022/01/26 11:32:28;;;;;;;1999.90;999.90;;;;;;;-3.30;65.56;102520.13;4919292;28;97102;-75
2022/01/26 11:34:56;;;;;;;1999.90;999.90;;;;;;;-3.31;65.67;102526.13;4922226;28;96844;-74
2022/01/26 11:37:36;;;;;;;1999.90;999.90;;;;;;;-3.32;65.31;102526.88;4919696;28;99067;-75
2022/01/26 11:45:35;;;;;;;1999.90;999.90;;;;;;;-3.24;64.85;102533.81;4920407;28;97720;-75
2022/01/26 11:48:08;;;;;;;1999.90;999.90;;;;;;;-3.25;65.26;102530.28;4922123;28;99008;-75
2022/01/26 11:50:36;;;;;;;1999.90;999.90;;;;;;;-3.27;64.97;102530.88;4922399;28;99056;-75
2022/01/26 11:53:06;;;;;;;1999.90;999.90;;;;;;;-3.26;65.50;102531.06;4923750;28;98162;-74
2022/01/26 11:55:43;;;;;;;1999.90;999.90;;;;;;;-3.30;64.78;102517.53;4921179;28;97098;-75
2022/01/26 11:58:14;;;;;;;1999.90;999.90;;;;;;;-3.28;65.01;102521.22;4924676;28;99940;-76
2022/01/26 12:00:56;;;;;;;1999.90;999.90;;;;;;;-3.30;64.96;102509.72;4922139;28;99433;-74
2022/01/26 12:03:27;;;;;;;1999.90;999.90;;;;;;;-3.27;65.29;102517.84;4912809;28;97657;-75
2022/01/26 12:05:58;;;;;;;1999.90;999.90;;;;;;;-3.15;65.06;102508.72;4940888;28;96847;-75
2022/01/26 12:08:34;;;;;;;1999.90;999.90;;;;;;;-3.24;64.86;102495.66;4926385;28;97656;-75
2022/01/26 12:11:06;;;;;;;1999.90;999.90;;;;;;;-3.20;64.57;102494.31;4907297;28;100645;-75